createdAt,value
2023-04-15T00:01:34.486Z,6.30
2023-04-15T00:04:37.458Z,5.33
2023-04-15T00:07:40.279Z,8.03
2023-04-15T00:10:44.143Z,9.90
2023-04-15T00:13:46.234Z,5.90
2023-04-15T00:16:49.985Z,9.03
2023-04-15T00:19:51.664Z,6.30
2023-04-15T00:22:53.472Z,9.63
2023-04-15T00:25:55.606Z,7.57
2023-04-15T00:28:57.322Z,11.33
2023-04-15T00:31:58.874Z,9.20
2023-04-15T00:35:00.851Z,6.40
2023-04-15T00:38:02.436Z,6.30
2023-04-15T00:41:04.585Z,6.10
2023-04-15T00:44:07.044Z,7.97
2023-04-15T00:47:09.603Z,6.90
2023-04-15T00:50:12.812Z,10.00
2023-04-15T00:53:14.396Z,5.47
2023-04-15T00:56:16.040Z,9.23
2023-04-15T00:59:18.441Z,5.03
2023-04-15T01:02:20.674Z,7.10
2023-04-15T01:05:22.443Z,7.63
2023-04-15T01:08:28.488Z,12.00
2023-04-15T01:11:31.912Z,9.23
2023-04-15T01:14:33.982Z,9.43
2023-04-15T01:17:35.894Z,6.97
2023-04-15T01:20:37.597Z,6.90
2023-04-15T01:23:39.631Z,6.43
2023-04-15T01:26:42.313Z,7.90
2023-04-15T01:29:44.633Z,8.70
2023-04-15T01:32:46.537Z,8.70
2023-04-15T01:35:48.193Z,8.83
2023-04-15T01:38:50.552Z,9.17
2023-04-15T01:41:52.276Z,7.23
2023-04-15T01:44:53.956Z,10.00
2023-04-15T01:47:55.843Z,13.47
2023-04-15T01:50:58.396Z,7.80
2023-04-15T01:53:59.968Z,7.90
2023-04-15T01:57:02.111Z,9.10
2023-04-15T02:00:04.037Z,7.17
2023-04-15T02:03:06.497Z,6.73
2023-04-15T02:06:08.225Z,11.40
2023-04-15T02:09:10.557Z,9.93
2023-04-15T02:12:13.243Z,9.20
2023-04-15T02:15:15.392Z,8.17
2023-04-15T02:18:17.257Z,8.07
2023-04-15T02:21:18.970Z,6.60
2023-04-15T02:24:21.311Z,10.80
2023-04-15T02:27:23.024Z,6.47
2023-04-15T02:30:25.478Z,7.60
2023-04-15T02:33:27.117Z,6.20
2023-04-15T02:36:29.737Z,8.90
2023-04-15T02:39:31.282Z,10.80
2023-04-15T02:42:32.913Z,7.33
2023-04-15T02:45:34.758Z,7.80
2023-04-15T02:48:36.824Z,16.23
2023-04-15T02:51:38.783Z,12.10
2023-04-15T02:54:40.342Z,9.90
2023-04-15T02:57:41.999Z,8.83
2023-04-15T03:00:43.612Z,8.77
2023-04-15T03:03:45.498Z,12.33
2023-04-15T03:06:47.420Z,10.37
2023-04-15T03:09:48.970Z,11.90
2023-04-15T03:12:50.724Z,8.13
2023-04-15T03:15:52.359Z,11.10
2023-04-15T03:18:53.985Z,9.83
2023-04-15T03:21:55.551Z,10.27
2023-04-15T03:24:57.290Z,7.53
2023-04-15T03:28:00.162Z,9.40
2023-04-15T03:31:01.834Z,9.97
2023-04-15T03:34:03.431Z,10.20
2023-04-15T03:37:05.609Z,11.63
2023-04-15T03:40:08.007Z,11.17
2023-04-15T03:43:09.604Z,10.30
2023-04-15T03:46:11.248Z,8.37
2023-04-15T03:49:14.072Z,15.07
2023-04-15T03:52:15.841Z,8.97
2023-04-15T03:55:17.526Z,8.10
2023-04-15T03:58:19.112Z,11.53
2023-04-15T04:01:20.761Z,9.77
2023-04-15T04:04:22.438Z,10.37
2023-04-15T04:07:25.320Z,9.37
2023-04-15T04:10:27.071Z,15.23
2023-04-15T04:13:28.648Z,9.07
2023-04-15T04:16:30.524Z,9.60
2023-04-15T04:19:32.222Z,8.13
2023-04-15T04:22:39.077Z,9.77
2023-04-15T04:25:40.655Z,7.53
2023-04-15T04:28:42.289Z,9.47
2023-04-15T04:31:43.854Z,10.57
2023-04-15T04:34:45.486Z,7.73
2023-04-15T04:37:47.346Z,17.90
2023-04-15T04:40:49.008Z,10.17
2023-04-15T04:43:50.811Z,10.87
2023-04-15T04:46:52.490Z,9.00
2023-04-15T04:49:54.040Z,12.40
2023-04-15T04:52:55.810Z,10.40
2023-04-15T04:55:57.448Z,10.37
2023-04-15T04:58:59.153Z,12.10
2023-04-15T05:02:01.103Z,13.23
2023-04-15T05:05:02.939Z,11.43
2023-04-15T05:08:05.113Z,11.00
2023-04-15T05:11:07.259Z,15.03
2023-04-15T05:14:08.846Z,7.57
2023-04-15T05:17:11.476Z,9.40
2023-04-15T05:20:13.801Z,14.10
2023-04-15T05:23:15.853Z,8.13
2023-04-15T05:26:17.753Z,11.40
2023-04-15T05:29:19.394Z,15.80
2023-04-15T05:32:21.269Z,14.60
2023-04-15T05:35:22.951Z,13.63
2023-04-15T05:38:24.514Z,10.93
2023-04-15T05:41:26.299Z,11.77
2023-04-15T05:44:27.914Z,13.30
2023-04-15T05:47:29.488Z,13.60
2023-04-15T05:50:31.222Z,12.10
2023-04-15T05:53:32.873Z,9.67
2023-04-15T05:56:34.468Z,11.60
2023-04-15T05:59:36.153Z,10.30
2023-04-15T06:02:37.922Z,11.33
2023-04-15T06:05:40.576Z,13.70
2023-04-15T06:08:42.175Z,17.50
2023-04-15T06:11:43.809Z,13.60
2023-04-15T06:14:45.528Z,14.70
2023-04-15T06:17:47.137Z,17.03
2023-04-15T06:20:48.818Z,10.40
2023-04-15T06:23:50.590Z,12.53
2023-04-15T06:26:52.248Z,13.50
2023-04-15T06:29:53.814Z,14.17
2023-04-15T06:32:56.031Z,12.30
2023-04-15T06:35:57.757Z,10.57
2023-04-15T06:38:59.702Z,16.90
2023-04-15T06:42:01.590Z,10.47
2023-04-15T06:45:03.366Z,15.40
2023-04-15T06:48:05.788Z,9.47
2023-04-15T06:51:07.415Z,12.60
2023-04-15T06:54:09.072Z,11.70
2023-04-15T06:57:10.814Z,13.93
2023-04-15T07:00:12.871Z,9.80
2023-04-15T07:03:15.123Z,14.17
2023-04-15T07:06:17.000Z,15.03
2023-04-15T07:09:18.580Z,11.43
2023-04-15T07:12:20.704Z,11.97
2023-04-15T07:15:23.534Z,18.57
2023-04-15T07:18:25.519Z,11.10
2023-04-15T07:21:27.628Z,12.17
2023-04-15T07:24:29.256Z,64.47
2023-04-15T07:27:31.110Z,11.30
2023-04-15T07:30:33.140Z,10.47
2023-04-15T07:33:34.765Z,11.53
2023-04-15T07:36:36.871Z,17.10
2023-04-15T07:39:38.695Z,10.60
2023-04-15T07:42:41.475Z,13.80
2023-04-15T07:45:43.339Z,10.80
2023-04-15T07:48:45.191Z,12.03
2023-04-15T07:51:47.129Z,9.77
2023-04-15T07:54:48.720Z,13.50
2023-04-15T07:57:50.436Z,13.07
2023-04-15T08:00:52.163Z,11.37
2023-04-15T08:03:54.922Z,11.20
2023-04-15T08:06:56.628Z,11.57
2023-04-15T08:09:58.200Z,12.93
2023-04-15T08:12:59.930Z,11.33
2023-04-15T08:16:33.851Z,10.90
2023-04-15T08:19:35.682Z,12.97
2023-04-15T08:22:37.280Z,11.87
2023-04-15T08:25:38.852Z,13.37
2023-04-15T08:28:41.781Z,10.37
2023-04-15T08:31:43.550Z,11.37
2023-04-15T08:34:45.188Z,12.17
2023-04-15T08:37:46.791Z,11.93
2023-04-15T08:40:48.372Z,9.37
2023-04-15T08:43:56.779Z,12.20
2023-04-15T08:47:01.781Z,12.93
2023-04-15T08:50:04.741Z,12.43
2023-04-15T08:53:07.549Z,11.20
2023-04-15T08:56:10.572Z,9.00
2023-04-15T08:59:12.593Z,10.37
2023-04-15T09:02:14.364Z,7.50
2023-04-15T09:05:16.562Z,13.03
2023-04-15T09:08:18.705Z,5.77
2023-04-15T09:11:22.143Z,6.30
2023-04-15T09:14:23.790Z,6.13
2023-04-15T09:17:26.547Z,11.13
2023-04-15T09:20:28.240Z,6.97
2023-04-15T09:23:29.872Z,8.37
2023-04-15T09:26:33.839Z,8.93
2023-04-15T09:29:35.659Z,8.40
2023-04-15T09:32:57.877Z,6.37
2023-04-15T09:36:04.964Z,6.50
2023-04-15T09:39:07.005Z,5.93
2023-04-15T09:42:08.709Z,6.30
2023-04-15T09:45:13.123Z,6.70
2023-04-15T09:48:22.784Z,5.17
2023-04-15T09:51:36.567Z,7.13
2023-04-15T09:54:38.879Z,5.70
2023-04-15T09:57:49.792Z,4.80
2023-04-15T10:00:53.268Z,6.80
2023-04-15T10:03:58.069Z,5.23
2023-04-15T10:07:00.942Z,3.93
2023-04-15T10:10:04.352Z,3.93
2023-04-15T10:13:06.976Z,3.40
2023-04-15T10:16:16.806Z,6.10
2023-04-15T10:19:26.283Z,4.97
2023-04-15T10:22:28.763Z,4.60
2023-04-15T10:25:30.960Z,4.47
2023-04-15T10:28:32.715Z,4.53
2023-04-15T10:31:35.738Z,4.40
2023-04-15T10:34:38.363Z,5.97
2023-04-15T10:37:40.079Z,5.37
2023-04-15T10:40:41.979Z,5.67
2023-04-15T10:44:01.165Z,4.90
2023-04-15T10:47:10.534Z,4.70
2023-04-15T10:50:12.535Z,4.47
2023-04-15T10:53:28.410Z,5.10
2023-04-15T10:56:31.006Z,6.00
2023-04-15T10:59:36.329Z,5.00
2023-04-15T11:02:42.144Z,4.80
2023-04-15T11:05:51.798Z,4.10
2023-04-15T11:08:59.285Z,3.60
2023-04-15T11:12:10.463Z,6.03
2023-04-15T11:15:39.141Z,5.70
2023-04-15T11:18:40.821Z,6.50
2023-04-15T11:21:42.410Z,5.13
2023-04-15T11:24:51.049Z,6.33
2023-04-15T11:27:54.444Z,3.70
2023-04-15T11:30:56.851Z,3.33
2023-04-15T11:34:01.406Z,3.20
2023-04-15T11:37:06.576Z,4.27
2023-04-15T11:40:09.353Z,4.30
2023-04-15T11:43:18.470Z,3.80
2023-04-15T11:46:22.654Z,3.93
2023-04-15T11:49:31.328Z,5.40
2023-04-15T11:52:32.939Z,3.23
2023-04-15T11:55:45.041Z,4.60
2023-04-15T11:58:47.269Z,2.80
2023-04-15T12:01:49.927Z,2.90
2023-04-15T12:04:51.601Z,3.10
2023-04-15T12:08:00.726Z,2.80
2023-04-15T12:11:02.492Z,3.03
2023-04-15T12:14:16.808Z,3.40
2023-04-15T12:17:18.516Z,4.83
2023-04-15T12:20:26.416Z,4.10
2023-04-15T12:23:28.500Z,2.80
2023-04-15T12:26:48.311Z,4.07
2023-04-15T12:29:49.896Z,6.10
2023-04-15T12:32:52.270Z,7.40
2023-04-15T12:35:53.869Z,2.53
2023-04-15T12:38:55.922Z,5.23
2023-04-15T12:41:57.909Z,2.90
2023-04-15T12:44:59.458Z,2.80
2023-04-15T12:48:01.158Z,4.63
2023-04-15T12:51:05.121Z,3.50
2023-04-15T12:54:07.238Z,4.10
2023-04-15T12:57:08.985Z,3.83
2023-04-15T13:00:11.233Z,4.63
2023-04-15T13:03:13.110Z,2.90
2023-04-15T13:06:14.750Z,3.87
2023-04-15T13:09:16.442Z,2.33
2023-04-15T13:12:18.318Z,2.33
2023-04-15T13:15:22.291Z,2.30
2023-04-15T13:18:23.910Z,2.30
2023-04-15T13:21:25.572Z,3.40
2023-04-15T13:24:27.122Z,2.30
2023-04-15T13:27:28.780Z,2.00
2023-04-15T13:30:31.161Z,1.97
2023-04-15T13:33:32.777Z,2.83
2023-04-15T13:36:34.419Z,4.87
2023-04-15T13:39:36.315Z,2.73
2023-04-15T13:42:37.868Z,2.93
2023-04-15T13:45:39.550Z,2.60
2023-04-15T13:48:41.366Z,2.20
2023-04-15T13:51:43.365Z,4.40
2023-04-15T13:54:45.021Z,5.30
2023-04-15T13:57:47.654Z,1.97
2023-04-15T14:00:49.469Z,2.80
2023-04-15T14:03:51.321Z,1.80
2023-04-15T14:06:53.070Z,2.00
2023-04-15T14:09:55.455Z,2.07
2023-04-15T14:12:57.034Z,1.63
2023-04-15T14:15:58.712Z,1.40
2023-04-15T14:19:00.933Z,1.30
2023-04-15T14:22:03.347Z,1.70
2023-04-15T14:25:06.512Z,2.23
2023-04-15T14:28:08.061Z,1.77
2023-04-15T14:31:09.633Z,1.60
2023-04-15T14:34:11.587Z,1.53
2023-04-15T14:37:13.304Z,1.60
2023-04-15T14:40:15.452Z,1.97
2023-04-15T14:43:17.347Z,2.00
2023-04-15T14:46:19.159Z,2.53
2023-04-15T14:49:21.264Z,1.70
2023-04-15T14:52:23.139Z,1.80
2023-04-15T14:55:24.912Z,1.93
2023-04-15T14:58:26.605Z,2.47
2023-04-15T15:01:28.557Z,2.13
2023-04-15T15:04:30.512Z,1.93
2023-04-15T15:07:32.207Z,2.30
2023-04-15T15:10:48.298Z,1.80
2023-04-15T15:13:51.468Z,1.87
2023-04-15T15:16:53.143Z,1.70
2023-04-15T15:19:54.701Z,2.03
2023-04-15T15:22:56.686Z,2.17
2023-04-15T15:25:58.956Z,2.33
2023-04-15T15:29:00.703Z,2.30
2023-04-15T15:32:02.329Z,1.80
2023-04-15T15:35:04.119Z,2.00
2023-04-15T15:38:06.365Z,3.63
2023-04-15T15:41:08.036Z,2.27
2023-04-15T15:44:09.676Z,2.07
2023-04-15T15:47:11.738Z,2.47
2023-04-15T15:50:14.421Z,2.50
2023-04-15T15:53:20.578Z,2.17
2023-04-15T15:56:22.355Z,2.20
2023-04-15T15:59:25.424Z,3.63
2023-04-15T16:02:45.818Z,2.97
2023-04-15T16:05:48.909Z,2.33
2023-04-15T16:08:50.627Z,3.00
2023-04-15T16:11:52.248Z,2.80
2023-04-15T16:14:53.938Z,2.83
2023-04-15T16:17:55.574Z,3.00
2023-04-15T16:20:58.180Z,3.23
2023-04-15T16:23:59.783Z,3.53
2023-04-15T16:27:02.771Z,3.33
2023-04-15T16:30:04.898Z,3.60
2023-04-15T16:33:07.791Z,4.17
2023-04-15T16:36:09.538Z,3.50
2023-04-15T16:39:11.225Z,3.90
2023-04-15T16:42:12.878Z,5.30
2023-04-15T16:45:14.514Z,8.47
2023-04-15T16:48:16.362Z,4.77
2023-04-15T16:51:18.031Z,4.17
2023-04-15T16:54:19.625Z,3.70
2023-04-15T16:57:21.400Z,3.37
2023-04-15T17:00:23.022Z,4.77
2023-04-15T17:03:25.851Z,4.23
2023-04-15T17:06:27.779Z,5.23
2023-04-15T17:09:29.417Z,4.93
2023-04-15T17:12:31.741Z,5.00
2023-04-15T17:15:33.438Z,4.27
2023-04-15T17:18:35.314Z,5.80
2023-04-15T17:21:36.971Z,7.63
2023-04-15T17:24:38.589Z,8.63
2023-04-15T17:27:40.678Z,9.67
2023-04-15T17:30:42.264Z,7.17
2023-04-15T17:34:01.787Z,6.03
2023-04-15T17:37:06.235Z,13.30
2023-04-15T17:40:09.044Z,7.97
2023-04-15T17:43:10.692Z,9.13
2023-04-15T17:46:13.273Z,10.47
2023-04-15T17:49:15.005Z,13.40
2023-04-15T17:52:16.698Z,14.17
2023-04-15T17:55:18.380Z,14.50
2023-04-15T17:58:20.305Z,13.90
2023-04-15T18:01:22.284Z,8.20
2023-04-15T18:04:26.475Z,10.23
2023-04-15T18:07:28.551Z,13.67
2023-04-15T18:10:30.125Z,18.80
2023-04-15T18:13:31.728Z,16.90
2023-04-15T18:16:33.556Z,10.80
2023-04-15T18:19:35.216Z,11.77
2023-04-15T18:22:36.915Z,11.60
2023-04-15T18:25:38.664Z,7.33
2023-04-15T18:28:40.362Z,15.00
2023-04-15T18:31:42.060Z,8.80
2023-04-15T18:34:43.794Z,14.50
2023-04-15T18:37:45.403Z,15.73
2023-04-15T18:40:47.005Z,13.40
2023-04-15T18:43:48.927Z,16.03
2023-04-15T18:46:50.630Z,16.50
2023-04-15T18:49:52.229Z,13.47
2023-04-15T18:52:53.875Z,12.50
2023-04-15T18:55:56.331Z,13.83
2023-04-15T18:59:09.663Z,10.13
2023-04-15T19:02:20.014Z,15.60
2023-04-15T19:05:21.672Z,16.57
2023-04-15T19:08:23.332Z,10.20
2023-04-15T19:11:25.983Z,9.67
2023-04-15T19:14:27.745Z,8.97
2023-04-15T19:17:29.465Z,13.23
2023-04-15T19:20:31.285Z,11.17
2023-04-15T19:23:33.541Z,12.87
2023-04-15T19:26:36.748Z,9.67
2023-04-15T19:29:38.436Z,14.23
2023-04-15T19:32:40.127Z,10.10
2023-04-15T19:35:41.834Z,10.00
2023-04-15T19:38:43.918Z,10.03
2023-04-15T19:41:45.795Z,9.37
2023-04-15T19:44:47.521Z,10.37
2023-04-15T19:47:49.263Z,13.90
2023-04-15T19:50:51.252Z,32.17
2023-04-15T19:53:53.875Z,33.13
2023-04-15T19:56:55.662Z,21.03
2023-04-15T19:59:57.247Z,22.47
2023-04-15T20:03:00.879Z,18.23
2023-04-15T20:06:02.720Z,11.90
2023-04-15T20:09:04.871Z,11.60
2023-04-15T20:12:49.390Z,12.20
2023-04-15T20:15:28.733Z,8.57
2023-04-15T20:18:30.680Z,11.60
2023-04-15T20:21:32.314Z,12.20
2023-04-15T20:24:34.109Z,8.67
2023-04-15T20:27:35.712Z,10.57
2023-04-15T20:30:39.336Z,8.20
2023-04-15T20:33:40.907Z,5.40
2023-04-15T20:36:43.267Z,7.37
2023-04-15T20:39:44.928Z,5.80
2023-04-15T20:42:46.558Z,6.30
2023-04-15T20:45:50.145Z,5.60
2023-04-15T20:48:51.763Z,5.00
2023-04-15T20:51:53.340Z,5.73
2023-04-15T20:54:55.564Z,6.17
2023-04-15T20:57:59.156Z,5.37
2023-04-15T21:01:02.144Z,5.00
2023-04-15T21:04:03.995Z,5.43
2023-04-15T21:07:05.831Z,6.83
2023-04-15T21:10:07.711Z,5.30
2023-04-15T21:13:09.355Z,5.67
2023-04-15T21:16:10.983Z,7.60
2023-04-15T21:19:12.594Z,6.57
2023-04-15T21:22:14.400Z,7.57
2023-04-15T21:25:16.151Z,5.90
2023-04-15T21:28:17.754Z,5.43
2023-04-15T21:31:20.705Z,5.47
2023-04-15T21:34:22.325Z,7.00
2023-04-15T21:37:24.014Z,5.87
2023-04-15T21:40:25.732Z,5.30
2023-04-15T21:43:27.720Z,7.43
2023-04-15T21:46:32.784Z,8.30
2023-04-15T21:49:35.027Z,10.13
2023-04-15T21:52:36.593Z,7.90
2023-04-15T21:55:38.176Z,8.63
2023-04-15T21:58:39.833Z,12.13
2023-04-15T22:01:41.464Z,11.07
2023-04-15T22:04:43.158Z,12.17
2023-04-15T22:07:44.844Z,9.80
2023-04-15T22:10:46.488Z,12.90
2023-04-15T22:13:48.102Z,7.30
2023-04-15T22:16:49.662Z,12.63
2023-04-15T22:19:51.353Z,6.90
2023-04-15T22:22:54.284Z,10.83
2023-04-15T22:25:56.412Z,10.87
2023-04-15T22:28:58.010Z,9.03
2023-04-15T22:31:59.692Z,6.90
2023-04-15T22:35:01.722Z,6.73
2023-04-15T22:38:04.140Z,8.30
2023-04-15T22:41:06.011Z,6.97
2023-04-15T22:44:07.642Z,9.03
2023-04-15T22:47:09.197Z,6.80
2023-04-15T22:50:11.048Z,7.67
2023-04-15T22:53:12.745Z,10.10
2023-04-15T22:56:14.329Z,7.40
2023-04-15T22:59:15.979Z,8.70
2023-04-15T23:02:17.872Z,8.60
2023-04-15T23:05:19.813Z,10.07
2023-04-15T23:08:23.704Z,8.53
2023-04-15T23:11:25.425Z,12.57
2023-04-15T23:14:28.148Z,9.57
2023-04-15T23:17:29.776Z,8.00
2023-04-15T23:20:31.382Z,12.93
2023-04-15T23:23:32.987Z,16.93
2023-04-15T23:26:34.560Z,10.27
2023-04-15T23:29:36.319Z,9.10
2023-04-15T23:32:37.917Z,8.80
2023-04-15T23:35:39.591Z,11.60
2023-04-15T23:38:42.078Z,12.50
2023-04-15T23:41:43.706Z,9.80
2023-04-15T23:44:45.343Z,13.70
2023-04-15T23:47:46.978Z,12.40
2023-04-15T23:50:48.566Z,13.20
2023-04-15T23:53:52.221Z,12.40
2023-04-15T23:56:53.829Z,13.13
2023-04-15T23:59:55.600Z,9.87
